sensor_id;sensor_type;location;lat;lon;timestamp;P1;durP1;ratioP1;P2;durP2;ratioP2
13079;SDS011;6606;49.154;9.280;2022-07-01T00:00:36;7.10;;;1.20;;
13079;SDS011;6606;49.154;9.280;2022-07-01T00:03:03;2.50;;;1.30;;
13079;SDS011;6606;49.154;9.280;2022-07-01T00:05:30;3.00;;;1.20;;
13079;SDS011;6606;49.154;9.280;2022-07-01T00:07:57;6.50;;;1.13;;
13079;SDS011;6606;49.154;9.280;2022-07-01T00:10:23;1.40;;;1.03;;
13079;SDS011;6606;49.154;9.280;2022-07-01T00:12:51;2.70;;;1.00;;
13079;SDS011;6606;49.154;9.280;2022-07-01T00:15:18;2.20;;;0.90;;
13079;SDS011;6606;49.154;9.280;2022-07-01T00:17:45;6.97;;;1.20;;
13079;SDS011;6606;49.154;9.280;2022-07-01T00:20:11;4.03;;;1.00;;
13079;SDS011;6606;49.154;9.280;2022-07-01T00:22:39;3.07;;;1.20;;
13079;SDS011;6606;49.154;9.280;2022-07-01T00:25:07;1.67;;;1.20;;
13079;SDS011;6606;49.154;9.280;2022-07-01T00:27:36;3.93;;;1.80;;
13079;SDS011;6606;49.154;9.280;2022-07-01T00:30:05;2.20;;;1.10;;
13079;SDS011;6606;49.154;9.280;2022-07-01T00:32:33;1.90;;;1.20;;
13079;SDS011;6606;49.154;9.280;2022-07-01T00:35:00;5.67;;;1.30;;
13079;SDS011;6606;49.154;9.280;2022-07-01T00:37:27;6.30;;;1.23;;
13079;SDS011;6606;49.154;9.280;2022-07-01T00:39:54;4.53;;;1.20;;
13079;SDS011;6606;49.154;9.280;2022-07-01T00:42:20;2.27;;;1.20;;
13079;SDS011;6606;49.154;9.280;2022-07-01T00:44:47;3.70;;;1.30;;
13079;SDS011;6606;49.154;9.280;2022-07-01T00:47:15;3.30;;;1.40;;
13079;SDS011;6606;49.154;9.280;2022-07-01T00:49:42;3.57;;;1.20;;
13079;SDS011;6606;49.154;9.280;2022-07-01T00:52:09;4.90;;;1.27;;
13079;SDS011;6606;49.154;9.280;2022-07-01T00:54:37;7.23;;;1.50;;
13079;SDS011;6606;49.154;9.280;2022-07-01T00:57:07;3.73;;;1.20;;
13079;SDS011;6606;49.154;9.280;2022-07-01T00:59:35;4.10;;;1.53;;
13079;SDS011;6606;49.154;9.280;2022-07-01T01:02:03;3.90;;;1.30;;
13079;SDS011;6606;49.154;9.280;2022-07-01T01:04:32;4.87;;;1.30;;
13079;SDS011;6606;49.154;9.280;2022-07-01T01:07:00;7.50;;;1.60;;
13079;SDS011;6606;49.154;9.280;2022-07-01T01:09:27;3.43;;;1.30;;
13079;SDS011;6606;49.154;9.280;2022-07-01T01:11:54;1.40;;;1.10;;
13079;SDS011;6606;49.154;9.280;2022-07-01T01:14:23;2.37;;;1.10;;
13079;SDS011;6606;49.154;9.280;2022-07-01T01:16:49;1.40;;;1.03;;
13079;SDS011;6606;49.154;9.280;2022-07-01T01:19:16;2.63;;;1.20;;
13079;SDS011;6606;49.154;9.280;2022-07-01T01:21:44;4.17;;;1.13;;
13079;SDS011;6606;49.154;9.280;2022-07-01T01:24:11;2.00;;;1.10;;
13079;SDS011;6606;49.154;9.280;2022-07-01T01:26:38;2.00;;;1.10;;
13079;SDS011;6606;49.154;9.280;2022-07-01T01:29:04;2.50;;;1.23;;
13079;SDS011;6606;49.154;9.280;2022-07-01T01:31:32;3.20;;;1.20;;
13079;SDS011;6606;49.154;9.280;2022-07-01T01:33:59;2.33;;;1.20;;
13079;SDS011;6606;49.154;9.280;2022-07-01T01:36:26;4.23;;;1.40;;
13079;SDS011;6606;49.154;9.280;2022-07-01T01:38:54;9.00;;;1.37;;
13079;SDS011;6606;49.154;9.280;2022-07-01T01:41:22;2.07;;;1.10;;
13079;SDS011;6606;49.154;9.280;2022-07-01T01:43:49;3.03;;;1.20;;
13079;SDS011;6606;49.154;9.280;2022-07-01T01:46:15;2.27;;;1.10;;
13079;SDS011;6606;49.154;9.280;2022-07-01T01:48:42;2.27;;;1.20;;
13079;SDS011;6606;49.154;9.280;2022-07-01T01:51:09;2.23;;;1.27;;
13079;SDS011;6606;49.154;9.280;2022-07-01T01:53:35;1.87;;;1.40;;
13079;SDS011;6606;49.154;9.280;2022-07-01T01:56:04;1.50;;;1.13;;
13079;SDS011;6606;49.154;9.280;2022-07-01T01:58:31;2.10;;;1.03;;
13079;SDS011;6606;49.154;9.280;2022-07-01T02:00:58;3.27;;;1.30;;
13079;SDS011;6606;49.154;9.280;2022-07-01T02:03:24;4.67;;;1.23;;
13079;SDS011;6606;49.154;9.280;2022-07-01T02:05:51;1.27;;;1.07;;
13079;SDS011;6606;49.154;9.280;2022-07-01T02:08:18;1.20;;;0.87;;
13079;SDS011;6606;49.154;9.280;2022-07-01T02:10:45;1.43;;;1.10;;
13079;SDS011;6606;49.154;9.280;2022-07-01T02:13:13;1.93;;;0.93;;
13079;SDS011;6606;49.154;9.280;2022-07-01T02:15:40;1.83;;;0.90;;
13079;SDS011;6606;49.154;9.280;2022-07-01T02:18:06;2.00;;;1.00;;
13079;SDS011;6606;49.154;9.280;2022-07-01T02:20:33;1.50;;;1.00;;
13079;SDS011;6606;49.154;9.280;2022-07-01T02:23:00;1.60;;;1.07;;
13079;SDS011;6606;49.154;9.280;2022-07-01T02:25:26;3.10;;;1.10;;
13079;SDS011;6606;49.154;9.280;2022-07-01T02:27:53;1.40;;;1.00;;
13079;SDS011;6606;49.154;9.280;2022-07-01T02:30:21;2.40;;;1.10;;
13079;SDS011;6606;49.154;9.280;2022-07-01T02:32:48;3.77;;;1.00;;
13079;SDS011;6606;49.154;9.280;2022-07-01T02:35:15;1.87;;;1.17;;
13079;SDS011;6606;49.154;9.280;2022-07-01T02:37:41;3.50;;;1.20;;
13079;SDS011;6606;49.154;9.280;2022-07-01T02:40:09;1.93;;;1.30;;
13079;SDS011;6606;49.154;9.280;2022-07-01T02:42:37;2.63;;;1.37;;
13079;SDS011;6606;49.154;9.280;2022-07-01T02:45:04;1.93;;;1.00;;
13079;SDS011;6606;49.154;9.280;2022-07-01T02:47:34;2.60;;;1.00;;
13079;SDS011;6606;49.154;9.280;2022-07-01T02:50:02;2.33;;;1.20;;
13079;SDS011;6606;49.154;9.280;2022-07-01T02:52:29;3.00;;;1.30;;
13079;SDS011;6606;49.154;9.280;2022-07-01T02:54:56;1.70;;;1.10;;
13079;SDS011;6606;49.154;9.280;2022-07-01T02:57:22;2.60;;;1.10;;
13079;SDS011;6606;49.154;9.280;2022-07-01T02:59:49;1.63;;;1.10;;
13079;SDS011;6606;49.154;9.280;2022-07-01T03:02:17;1.30;;;1.00;;
13079;SDS011;6606;49.154;9.280;2022-07-01T03:04:45;1.90;;;1.10;;
13079;SDS011;6606;49.154;9.280;2022-07-01T03:07:12;2.33;;;1.10;;
13079;SDS011;6606;49.154;9.280;2022-07-01T03:09:39;1.17;;;1.00;;
13079;SDS011;6606;49.154;9.280;2022-07-01T03:12:07;1.80;;;1.07;;
13079;SDS011;6606;49.154;9.280;2022-07-01T03:14:48;1.93;;;1.17;;
13079;SDS011;6606;49.154;9.280;2022-07-01T03:17:14;2.17;;;1.00;;
13079;SDS011;6606;49.154;9.280;2022-07-01T03:19:41;2.50;;;1.00;;
13079;SDS011;6606;49.154;9.280;2022-07-01T03:22:09;3.73;;;1.30;;
13079;SDS011;6606;49.154;9.280;2022-07-01T03:24:36;3.53;;;1.13;;
13079;SDS011;6606;49.154;9.280;2022-07-01T03:27:03;2.07;;;1.07;;
13079;SDS011;6606;49.154;9.280;2022-07-01T03:29:30;2.60;;;1.27;;
13079;SDS011;6606;49.154;9.280;2022-07-01T03:31:57;2.87;;;1.20;;
13079;SDS011;6606;49.154;9.280;2022-07-01T03:34:23;2.07;;;1.10;;
13079;SDS011;6606;49.154;9.280;2022-07-01T03:36:50;1.50;;;1.10;;
13079;SDS011;6606;49.154;9.280;2022-07-01T03:39:18;2.80;;;1.37;;
13079;SDS011;6606;49.154;9.280;2022-07-01T03:41:45;2.03;;;1.30;;
13079;SDS011;6606;49.154;9.280;2022-07-01T03:44:12;2.07;;;1.30;;
13079;SDS011;6606;49.154;9.280;2022-07-01T03:46:39;4.37;;;1.30;;
13079;SDS011;6606;49.154;9.280;2022-07-01T03:49:05;2.43;;;1.50;;
13079;SDS011;6606;49.154;9.280;2022-07-01T03:51:33;2.23;;;1.73;;
13079;SDS011;6606;49.154;9.280;2022-07-01T03:54:00;2.23;;;1.33;;
13079;SDS011;6606;49.154;9.280;2022-07-01T03:56:45;3.50;;;1.63;;
13079;SDS011;6606;49.154;9.280;2022-07-01T03:59:12;4.13;;;1.67;;
13079;SDS011;6606;49.154;9.280;2022-07-01T04:01:39;2.33;;;1.60;;
13079;SDS011;6606;49.154;9.280;2022-07-01T04:04:05;3.27;;;1.50;;
13079;SDS011;6606;49.154;9.280;2022-07-01T04:06:32;4.77;;;1.80;;
13079;SDS011;6606;49.154;9.280;2022-07-01T04:08:59;2.30;;;1.67;;
13079;SDS011;6606;49.154;9.280;2022-07-01T04:11:26;3.73;;;1.77;;
13079;SDS011;6606;49.154;9.280;2022-07-01T04:13:54;3.07;;;1.70;;
13079;SDS011;6606;49.154;9.280;2022-07-01T04:16:21;3.80;;;1.70;;
13079;SDS011;6606;49.154;9.280;2022-07-01T04:18:48;3.63;;;1.63;;
13079;SDS011;6606;49.154;9.280;2022-07-01T04:21:15;1.90;;;1.70;;
13079;SDS011;6606;49.154;9.280;2022-07-01T04:23:59;4.70;;;1.70;;
13079;SDS011;6606;49.154;9.280;2022-07-01T04:26:26;3.27;;;1.80;;
13079;SDS011;6606;49.154;9.280;2022-07-01T04:28:54;2.73;;;1.50;;
13079;SDS011;6606;49.154;9.280;2022-07-01T04:31:21;2.60;;;1.87;;
13079;SDS011;6606;49.154;9.280;2022-07-01T04:33:48;1.77;;;1.67;;
13079;SDS011;6606;49.154;9.280;2022-07-01T04:36:15;2.77;;;2.00;;
13079;SDS011;6606;49.154;9.280;2022-07-01T04:38:43;3.50;;;1.70;;
13079;SDS011;6606;49.154;9.280;2022-07-01T04:41:10;2.00;;;1.83;;
13079;SDS011;6606;49.154;9.280;2022-07-01T04:43:55;3.50;;;2.20;;
13079;SDS011;6606;49.154;9.280;2022-07-01T04:46:22;2.23;;;1.80;;
13079;SDS011;6606;49.154;9.280;2022-07-01T04:48:49;2.17;;;1.97;;
13079;SDS011;6606;49.154;9.280;2022-07-01T04:51:16;2.17;;;1.90;;
13079;SDS011;6606;49.154;9.280;2022-07-01T04:53:42;2.57;;;1.93;;
13079;SDS011;6606;49.154;9.280;2022-07-01T04:56:09;2.23;;;1.80;;
13079;SDS011;6606;49.154;9.280;2022-07-01T04:58:36;2.83;;;2.10;;
13079;SDS011;6606;49.154;9.280;2022-07-01T05:01:04;3.60;;;2.10;;
13079;SDS011;6606;49.154;9.280;2022-07-01T05:03:30;3.30;;;2.07;;
13079;SDS011;6606;49.154;9.280;2022-07-01T05:05:57;3.93;;;1.93;;
13079;SDS011;6606;49.154;9.280;2022-07-01T05:08:24;5.23;;;2.10;;
13079;SDS011;6606;49.154;9.280;2022-07-01T05:10:50;4.43;;;2.50;;
13079;SDS011;6606;49.154;9.280;2022-07-01T05:13:17;4.83;;;2.30;;
13079;SDS011;6606;49.154;9.280;2022-07-01T05:15:44;3.20;;;2.20;;
13079;SDS011;6606;49.154;9.280;2022-07-01T05:18:12;4.67;;;2.30;;
13079;SDS011;6606;49.154;9.280;2022-07-01T05:20:56;2.50;;;2.07;;
13079;SDS011;6606;49.154;9.280;2022-07-01T05:23:40;4.63;;;2.30;;
13079;SDS011;6606;49.154;9.280;2022-07-01T05:26:07;4.90;;;2.10;;
13079;SDS011;6606;49.154;9.280;2022-07-01T05:28:34;3.23;;;2.40;;
13079;SDS011;6606;49.154;9.280;2022-07-01T05:31:00;3.23;;;2.30;;
13079;SDS011;6606;49.154;9.280;2022-07-01T05:33:28;3.43;;;2.67;;
13079;SDS011;6606;49.154;9.280;2022-07-01T05:35:55;3.00;;;2.50;;
13079;SDS011;6606;49.154;9.280;2022-07-01T05:38:21;3.90;;;2.30;;
13079;SDS011;6606;49.154;9.280;2022-07-01T05:40:48;3.53;;;2.70;;
13079;SDS011;6606;49.154;9.280;2022-07-01T05:43:17;4.93;;;3.00;;
13079;SDS011;6606;49.154;9.280;2022-07-01T05:45:44;2.87;;;2.30;;
13079;SDS011;6606;49.154;9.280;2022-07-01T05:48:10;3.53;;;2.60;;
13079;SDS011;6606;49.154;9.280;2022-07-01T05:50:40;2.57;;;2.37;;
13079;SDS011;6606;49.154;9.280;2022-07-01T05:53:08;2.80;;;2.27;;
13079;SDS011;6606;49.154;9.280;2022-07-01T05:55:35;2.40;;;2.20;;
13079;SDS011;6606;49.154;9.280;2022-07-01T05:58:01;3.00;;;2.57;;
13079;SDS011;6606;49.154;9.280;2022-07-01T06:00:28;4.10;;;2.37;;
13079;SDS011;6606;49.154;9.280;2022-07-01T06:02:55;2.60;;;2.13;;
13079;SDS011;6606;49.154;9.280;2022-07-01T06:05:22;4.67;;;2.47;;
13079;SDS011;6606;49.154;9.280;2022-07-01T06:07:50;3.47;;;2.40;;
13079;SDS011;6606;49.154;9.280;2022-07-01T06:10:16;4.77;;;2.97;;
13079;SDS011;6606;49.154;9.280;2022-07-01T06:12:43;6.43;;;3.17;;
13079;SDS011;6606;49.154;9.280;2022-07-01T06:15:10;4.27;;;3.20;;
13079;SDS011;6606;49.154;9.280;2022-07-01T06:17:39;3.80;;;3.50;;
13079;SDS011;6606;49.154;9.280;2022-07-01T06:20:07;3.87;;;2.70;;
13079;SDS011;6606;49.154;9.280;2022-07-01T06:22:34;3.47;;;2.80;;
13079;SDS011;6606;49.154;9.280;2022-07-01T06:25:03;3.80;;;2.63;;
13079;SDS011;6606;49.154;9.280;2022-07-01T06:27:30;4.07;;;2.90;;
13079;SDS011;6606;49.154;9.280;2022-07-01T06:29:57;5.17;;;3.17;;
13079;SDS011;6606;49.154;9.280;2022-07-01T06:32:23;3.47;;;3.17;;
13079;SDS011;6606;49.154;9.280;2022-07-01T06:34:50;3.40;;;2.83;;
13079;SDS011;6606;49.154;9.280;2022-07-01T06:37:17;4.50;;;2.70;;
13079;SDS011;6606;49.154;9.280;2022-07-01T06:39:45;4.20;;;2.90;;
13079;SDS011;6606;49.154;9.280;2022-07-01T06:42:13;5.73;;;3.43;;
13079;SDS011;6606;49.154;9.280;2022-07-01T06:44:42;5.03;;;3.50;;
13079;SDS011;6606;49.154;9.280;2022-07-01T06:47:09;5.00;;;3.20;;
13079;SDS011;6606;49.154;9.280;2022-07-01T06:49:36;4.27;;;3.77;;
13079;SDS011;6606;49.154;9.280;2022-07-01T06:52:03;3.13;;;2.83;;
13079;SDS011;6606;49.154;9.280;2022-07-01T06:54:30;5.53;;;3.30;;
13079;SDS011;6606;49.154;9.280;2022-07-01T06:56:57;3.87;;;3.10;;
13079;SDS011;6606;49.154;9.280;2022-07-01T06:59:25;3.43;;;2.87;;
13079;SDS011;6606;49.154;9.280;2022-07-01T07:01:52;3.83;;;2.70;;
13079;SDS011;6606;49.154;9.280;2022-07-01T07:04:19;7.37;;;3.27;;
13079;SDS011;6606;49.154;9.280;2022-07-01T07:06:46;6.47;;;3.93;;
13079;SDS011;6606;49.154;9.280;2022-07-01T07:09:12;4.20;;;3.47;;
13079;SDS011;6606;49.154;9.280;2022-07-01T07:11:39;6.70;;;4.57;;
13079;SDS011;6606;49.154;9.280;2022-07-01T07:14:06;5.63;;;3.70;;
13079;SDS011;6606;49.154;9.280;2022-07-01T07:16:34;3.53;;;3.23;;
13079;SDS011;6606;49.154;9.280;2022-07-01T07:19:01;6.70;;;3.83;;
13079;SDS011;6606;49.154;9.280;2022-07-01T07:21:28;3.97;;;3.10;;
13079;SDS011;6606;49.154;9.280;2022-07-01T07:23:55;5.00;;;3.43;;
13079;SDS011;6606;49.154;9.280;2022-07-01T07:26:22;4.87;;;3.50;;
13079;SDS011;6606;49.154;9.280;2022-07-01T07:28:48;4.30;;;3.00;;
13079;SDS011;6606;49.154;9.280;2022-07-01T07:31:17;3.57;;;3.17;;
13079;SDS011;6606;49.154;9.280;2022-07-01T07:33:46;3.20;;;2.90;;
13079;SDS011;6606;49.154;9.280;2022-07-01T07:36:12;4.63;;;3.10;;
13079;SDS011;6606;49.154;9.280;2022-07-01T07:38:39;4.40;;;3.10;;
13079;SDS011;6606;49.154;9.280;2022-07-01T07:41:06;3.87;;;2.93;;
13079;SDS011;6606;49.154;9.280;2022-07-01T07:43:33;4.03;;;3.13;;
13079;SDS011;6606;49.154;9.280;2022-07-01T07:45:59;3.73;;;3.43;;
13079;SDS011;6606;49.154;9.280;2022-07-01T07:48:29;3.97;;;2.80;;
13079;SDS011;6606;49.154;9.280;2022-07-01T07:50:57;3.63;;;2.53;;
13079;SDS011;6606;49.154;9.280;2022-07-01T07:53:23;4.33;;;2.93;;
13079;SDS011;6606;49.154;9.280;2022-07-01T07:55:50;3.23;;;2.90;;
13079;SDS011;6606;49.154;9.280;2022-07-01T07:58:17;3.35;;;3.05;;
13079;SDS011;6606;49.154;9.280;2022-07-01T08:00:45;2.92;;;2.60;;
13079;SDS011;6606;49.154;9.280;2022-07-01T08:03:11;4.70;;;2.70;;
13079;SDS011;6606;49.154;9.280;2022-07-01T08:05:38;4.03;;;2.83;;
13079;SDS011;6606;49.154;9.280;2022-07-01T08:08:06;3.97;;;2.92;;
13079;SDS011;6606;49.154;9.280;2022-07-01T08:10:33;2.88;;;2.60;;
13079;SDS011;6606;49.154;9.280;2022-07-01T08:13:00;2.90;;;2.58;;
13079;SDS011;6606;49.154;9.280;2022-07-01T08:15:29;3.65;;;2.70;;
13079;SDS011;6606;49.154;9.280;2022-07-01T08:17:56;2.83;;;2.30;;
13079;SDS011;6606;49.154;9.280;2022-07-01T08:20:23;2.42;;;2.22;;
13079;SDS011;6606;49.154;9.280;2022-07-01T08:22:49;2.83;;;2.50;;
13079;SDS011;6606;49.154;9.280;2022-07-01T08:25:18;4.23;;;2.70;;
13079;SDS011;6606;49.154;9.280;2022-07-01T08:27:45;2.50;;;2.30;;
13079;SDS011;6606;49.154;9.280;2022-07-01T08:30:11;2.90;;;2.40;;
13079;SDS011;6606;49.154;9.280;2022-07-01T08:32:38;4.00;;;2.27;;
13079;SDS011;6606;49.154;9.280;2022-07-01T08:35:05;3.47;;;2.43;;
13079;SDS011;6606;49.154;9.280;2022-07-01T08:37:32;3.13;;;2.50;;
13079;SDS011;6606;49.154;9.280;2022-07-01T08:39:59;3.63;;;2.90;;
13079;SDS011;6606;49.154;9.280;2022-07-01T08:42:27;2.70;;;2.43;;
13079;SDS011;6606;49.154;9.280;2022-07-01T08:44:54;3.53;;;2.40;;
13079;SDS011;6606;49.154;9.280;2022-07-01T08:47:21;3.10;;;2.80;;
13079;SDS011;6606;49.154;9.280;2022-07-01T08:49:47;3.20;;;2.20;;
13079;SDS011;6606;49.154;9.280;2022-07-01T08:52:14;2.80;;;2.50;;
13079;SDS011;6606;49.154;9.280;2022-07-01T08:54:41;4.40;;;2.67;;
13079;SDS011;6606;49.154;9.280;2022-07-01T08:57:07;4.37;;;2.80;;
13079;SDS011;6606;49.154;9.280;2022-07-01T08:59:35;3.33;;;3.03;;
13079;SDS011;6606;49.154;9.280;2022-07-01T09:02:03;3.00;;;2.70;;
13079;SDS011;6606;49.154;9.280;2022-07-01T09:04:31;4.63;;;3.20;;
13079;SDS011;6606;49.154;9.280;2022-07-01T09:07:01;5.13;;;3.57;;
13079;SDS011;6606;49.154;9.280;2022-07-01T09:09:31;2.90;;;2.70;;
13079;SDS011;6606;49.154;9.280;2022-07-01T09:12:00;3.00;;;2.80;;
13079;SDS011;6606;49.154;9.280;2022-07-01T09:14:28;2.93;;;2.73;;
13079;SDS011;6606;49.154;9.280;2022-07-01T09:16:59;4.10;;;2.60;;
13079;SDS011;6606;49.154;9.280;2022-07-01T09:19:28;2.40;;;2.20;;
13079;SDS011;6606;49.154;9.280;2022-07-01T09:21:56;3.05;;;2.42;;
13079;SDS011;6606;49.154;9.280;2022-07-01T09:24:26;3.30;;;2.47;;
13079;SDS011;6606;49.154;9.280;2022-07-01T09:26:56;2.17;;;1.97;;
13079;SDS011;6606;49.154;9.280;2022-07-01T09:29:28;3.57;;;2.30;;
13079;SDS011;6606;49.154;9.280;2022-07-01T09:32:02;3.70;;;2.20;;
13079;SDS011;6606;49.154;9.280;2022-07-01T09:34:33;4.47;;;2.78;;
13079;SDS011;6606;49.154;9.280;2022-07-01T09:37:00;3.53;;;3.20;;
13079;SDS011;6606;49.154;9.280;2022-07-01T09:39:28;2.50;;;2.00;;
13079;SDS011;6606;49.154;9.280;2022-07-01T09:41:55;4.20;;;3.20;;
13079;SDS011;6606;49.154;9.280;2022-07-01T09:44:21;4.93;;;3.53;;
13079;SDS011;6606;49.154;9.280;2022-07-01T09:46:52;3.35;;;2.67;;
13079;SDS011;6606;49.154;9.280;2022-07-01T09:49:21;2.90;;;2.33;;
13079;SDS011;6606;49.154;9.280;2022-07-01T09:51:49;2.50;;;2.10;;
13079;SDS011;6606;49.154;9.280;2022-07-01T09:54:16;3.65;;;2.28;;
13079;SDS011;6606;49.154;9.280;2022-07-01T09:56:43;2.95;;;2.50;;
13079;SDS011;6606;49.154;9.280;2022-07-01T09:59:10;3.28;;;2.78;;
13079;SDS011;6606;49.154;9.280;2022-07-01T10:01:37;3.65;;;2.70;;
13079;SDS011;6606;49.154;9.280;2022-07-01T10:04:06;3.25;;;2.70;;
13079;SDS011;6606;49.154;9.280;2022-07-01T10:06:52;4.93;;;2.50;;
13079;SDS011;6606;49.154;9.280;2022-07-01T10:15:07;2.72;;;2.28;;
13079;SDS011;6606;49.154;9.280;2022-07-01T10:17:36;5.77;;;2.70;;
13079;SDS011;6606;49.154;9.280;2022-07-01T10:20:08;3.17;;;2.88;;
13079;SDS011;6606;49.154;9.280;2022-07-01T10:22:38;3.10;;;2.50;;
13079;SDS011;6606;49.154;9.280;2022-07-01T10:28:14;3.10;;;2.78;;
13079;SDS011;6606;49.154;9.280;2022-07-01T10:30:49;2.67;;;2.47;;
13079;SDS011;6606;49.154;9.280;2022-07-01T10:36:11;4.10;;;2.63;;
13079;SDS011;6606;49.154;9.280;2022-07-01T10:41:41;2.78;;;2.58;;
13079;SDS011;6606;49.154;9.280;2022-07-01T10:44:20;3.03;;;2.42;;
13079;SDS011;6606;49.154;9.280;2022-07-01T10:46:49;3.10;;;2.70;;
13079;SDS011;6606;49.154;9.280;2022-07-01T10:56:57;2.88;;;2.58;;
13079;SDS011;6606;49.154;9.280;2022-07-01T10:59:50;3.05;;;2.75;;
13079;SDS011;6606;49.154;9.280;2022-07-01T11:02:20;3.80;;;2.20;;
13079;SDS011;6606;49.154;9.280;2022-07-01T11:04:48;3.00;;;2.08;;
13079;SDS011;6606;49.154;9.280;2022-07-01T11:07:17;3.28;;;2.17;;
13079;SDS011;6606;49.154;9.280;2022-07-01T11:09:44;2.90;;;2.10;;
13079;SDS011;6606;49.154;9.280;2022-07-01T11:12:16;3.22;;;2.03;;
13079;SDS011;6606;49.154;9.280;2022-07-01T11:14:43;3.70;;;2.00;;
13079;SDS011;6606;49.154;9.280;2022-07-01T11:17:11;2.70;;;2.20;;
13079;SDS011;6606;49.154;9.280;2022-07-01T11:19:38;3.95;;;2.50;;
13079;SDS011;6606;49.154;9.280;2022-07-01T11:22:05;4.43;;;1.70;;
13079;SDS011;6606;49.154;9.280;2022-07-01T11:24:33;1.85;;;1.60;;
13079;SDS011;6606;49.154;9.280;2022-07-01T11:27:00;2.97;;;1.33;;
13079;SDS011;6606;49.154;9.280;2022-07-01T11:29:34;2.30;;;1.48;;
13079;SDS011;6606;49.154;9.280;2022-07-01T11:32:01;2.35;;;1.50;;
13079;SDS011;6606;49.154;9.280;2022-07-01T11:34:29;1.90;;;1.35;;
13079;SDS011;6606;49.154;9.280;2022-07-01T11:36:56;4.07;;;1.40;;
13079;SDS011;6606;49.154;9.280;2022-07-01T11:39:41;3.15;;;1.60;;
13079;SDS011;6606;49.154;9.280;2022-07-01T11:42:09;2.20;;;1.40;;
13079;SDS011;6606;49.154;9.280;2022-07-01T11:44:38;5.03;;;3.30;;
13079;SDS011;6606;49.154;9.280;2022-07-01T11:47:08;1.60;;;1.17;;
13079;SDS011;6606;49.154;9.280;2022-07-01T11:49:45;1.58;;;1.10;;
13079;SDS011;6606;49.154;9.280;2022-07-01T11:52:14;1.20;;;1.02;;
13079;SDS011;6606;49.154;9.280;2022-07-01T11:54:43;1.77;;;1.30;;
13079;SDS011;6606;49.154;9.280;2022-07-01T11:57:13;2.50;;;1.60;;
13079;SDS011;6606;49.154;9.280;2022-07-01T11:59:43;1.77;;;1.40;;
13079;SDS011;6606;49.154;9.280;2022-07-01T12:02:13;2.00;;;1.40;;
13079;SDS011;6606;49.154;9.280;2022-07-01T12:04:41;1.48;;;1.25;;
13079;SDS011;6606;49.154;9.280;2022-07-01T12:07:10;2.30;;;1.10;;
13079;SDS011;6606;49.154;9.280;2022-07-01T12:09:39;1.63;;;1.25;;
13079;SDS011;6606;49.154;9.280;2022-07-01T12:12:14;2.67;;;1.45;;
13079;SDS011;6606;49.154;9.280;2022-07-01T12:14:49;2.47;;;1.23;;
13079;SDS011;6606;49.154;9.280;2022-07-01T12:17:17;3.03;;;1.00;;
13079;SDS011;6606;49.154;9.280;2022-07-01T12:19:45;3.20;;;1.40;;
13079;SDS011;6606;49.154;9.280;2022-07-01T12:22:13;1.55;;;1.20;;
13079;SDS011;6606;49.154;9.280;2022-07-01T12:24:44;2.28;;;1.10;;
13079;SDS011;6606;49.154;9.280;2022-07-01T12:27:11;1.98;;;1.20;;
13079;SDS011;6606;49.154;9.280;2022-07-01T12:32:27;2.17;;;0.98;;
13079;SDS011;6606;49.154;9.280;2022-07-01T12:34:57;1.50;;;1.10;;
13079;SDS011;6606;49.154;9.280;2022-07-01T12:37:26;3.63;;;1.20;;
13079;SDS011;6606;49.154;9.280;2022-07-01T12:39:55;3.75;;;1.10;;
13079;SDS011;6606;49.154;9.280;2022-07-01T12:42:24;1.88;;;1.25;;
13079;SDS011;6606;49.154;9.280;2022-07-01T12:44:53;2.10;;;1.38;;
13079;SDS011;6606;49.154;9.280;2022-07-01T12:47:25;2.97;;;1.20;;
13079;SDS011;6606;49.154;9.280;2022-07-01T12:50:13;2.38;;;1.13;;
13079;SDS011;6606;49.154;9.280;2022-07-01T12:52:43;2.28;;;1.30;;
13079;SDS011;6606;49.154;9.280;2022-07-01T12:55:22;2.25;;;1.10;;
13079;SDS011;6606;49.154;9.280;2022-07-01T12:57:49;1.15;;;1.00;;
13079;SDS011;6606;49.154;9.280;2022-07-01T13:00:18;2.22;;;1.20;;
13079;SDS011;6606;49.154;9.280;2022-07-01T13:02:51;2.95;;;1.10;;
13079;SDS011;6606;49.154;9.280;2022-07-01T13:05:19;3.15;;;1.17;;
13079;SDS011;6606;49.154;9.280;2022-07-01T13:07:47;4.82;;;1.15;;
13079;SDS011;6606;49.154;9.280;2022-07-01T13:10:14;1.67;;;1.10;;
13079;SDS011;6606;49.154;9.280;2022-07-01T13:12:43;1.08;;;0.90;;
13079;SDS011;6606;49.154;9.280;2022-07-01T13:15:11;1.30;;;0.90;;
13079;SDS011;6606;49.154;9.280;2022-07-01T13:17:38;2.60;;;1.10;;
13079;SDS011;6606;49.154;9.280;2022-07-01T13:20:08;2.10;;;0.90;;
13079;SDS011;6606;49.154;9.280;2022-07-01T13:22:36;2.33;;;1.20;;
13079;SDS011;6606;49.154;9.280;2022-07-01T13:25:05;2.30;;;1.10;;
13079;SDS011;6606;49.154;9.280;2022-07-01T13:27:33;1.77;;;1.00;;
13079;SDS011;6606;49.154;9.280;2022-07-01T13:30:00;2.08;;;1.10;;
13079;SDS011;6606;49.154;9.280;2022-07-01T13:32:28;2.38;;;1.00;;
13079;SDS011;6606;49.154;9.280;2022-07-01T13:34:55;1.48;;;1.10;;
13079;SDS011;6606;49.154;9.280;2022-07-01T13:37:24;2.05;;;1.13;;
13079;SDS011;6606;49.154;9.280;2022-07-01T13:39:53;2.28;;;1.10;;
13079;SDS011;6606;49.154;9.280;2022-07-01T13:42:24;3.17;;;1.40;;
13079;SDS011;6606;49.154;9.280;2022-07-01T13:44:51;1.88;;;1.20;;
13079;SDS011;6606;49.154;9.280;2022-07-01T13:47:18;1.13;;;0.90;;
13079;SDS011;6606;49.154;9.280;2022-07-01T13:49:45;1.70;;;1.02;;
13079;SDS011;6606;49.154;9.280;2022-07-01T13:52:12;1.90;;;1.05;;
13079;SDS011;6606;49.154;9.280;2022-07-01T13:54:40;2.95;;;1.05;;
13079;SDS011;6606;49.154;9.280;2022-07-01T13:57:07;1.90;;;1.10;;
13079;SDS011;6606;49.154;9.280;2022-07-01T13:59:34;1.90;;;1.08;;
13079;SDS011;6606;49.154;9.280;2022-07-01T14:02:01;1.80;;;1.13;;
13079;SDS011;6606;49.154;9.280;2022-07-01T14:04:29;1.45;;;1.00;;
13079;SDS011;6606;49.154;9.280;2022-07-01T14:06:56;1.92;;;0.95;;
13079;SDS011;6606;49.154;9.280;2022-07-01T14:09:22;1.45;;;1.10;;
13079;SDS011;6606;49.154;9.280;2022-07-01T14:11:51;2.42;;;1.20;;
13079;SDS011;6606;49.154;9.280;2022-07-01T14:14:17;2.10;;;1.02;;
13079;SDS011;6606;49.154;9.280;2022-07-01T14:16:44;2.78;;;1.20;;
13079;SDS011;6606;49.154;9.280;2022-07-01T14:19:11;1.77;;;1.00;;
13079;SDS011;6606;49.154;9.280;2022-07-01T14:21:37;1.80;;;1.00;;
13079;SDS011;6606;49.154;9.280;2022-07-01T14:24:04;2.10;;;1.00;;
13079;SDS011;6606;49.154;9.280;2022-07-01T14:26:32;2.25;;;1.20;;
13079;SDS011;6606;49.154;9.280;2022-07-01T14:29:00;3.10;;;1.00;;
13079;SDS011;6606;49.154;9.280;2022-07-01T14:31:26;1.65;;;1.00;;
13079;SDS011;6606;49.154;9.280;2022-07-01T14:33:53;1.52;;;1.00;;
13079;SDS011;6606;49.154;9.280;2022-07-01T14:36:20;1.17;;;1.00;;
13079;SDS011;6606;49.154;9.280;2022-07-01T14:38:46;4.05;;;1.17;;
13079;SDS011;6606;49.154;9.280;2022-07-01T14:41:13;1.55;;;1.00;;
13079;SDS011;6606;49.154;9.280;2022-07-01T14:43:40;1.80;;;1.10;;
13079;SDS011;6606;49.154;9.280;2022-07-01T14:46:08;1.83;;;1.00;;
13079;SDS011;6606;49.154;9.280;2022-07-01T14:48:36;3.88;;;1.10;;
13079;SDS011;6606;49.154;9.280;2022-07-01T14:51:04;1.63;;;0.98;;
13079;SDS011;6606;49.154;9.280;2022-07-01T14:53:31;1.40;;;1.00;;
13079;SDS011;6606;49.154;9.280;2022-07-01T14:55:57;1.55;;;1.00;;
13079;SDS011;6606;49.154;9.280;2022-07-01T14:58:24;2.33;;;1.00;;
13079;SDS011;6606;49.154;9.280;2022-07-01T15:00:51;2.00;;;1.13;;
13079;SDS011;6606;49.154;9.280;2022-07-01T15:03:19;1.70;;;0.90;;
13079;SDS011;6606;49.154;9.280;2022-07-01T15:05:45;0.95;;;0.88;;
13079;SDS011;6606;49.154;9.280;2022-07-01T15:08:12;1.40;;;0.95;;
13079;SDS011;6606;49.154;9.280;2022-07-01T15:10:39;1.98;;;1.45;;
13079;SDS011;6606;49.154;9.280;2022-07-01T15:13:06;1.52;;;1.10;;
13079;SDS011;6606;49.154;9.280;2022-07-01T15:15:33;1.48;;;1.20;;
13079;SDS011;6606;49.154;9.280;2022-07-01T15:17:59;2.25;;;1.23;;
13079;SDS011;6606;49.154;9.280;2022-07-01T15:20:28;3.40;;;1.40;;
13079;SDS011;6606;49.154;9.280;2022-07-01T15:22:54;3.33;;;1.20;;
13079;SDS011;6606;49.154;9.280;2022-07-01T15:25:22;2.33;;;1.15;;
13079;SDS011;6606;49.154;9.280;2022-07-01T15:27:49;1.30;;;1.00;;
13079;SDS011;6606;49.154;9.280;2022-07-01T15:30:15;1.77;;;1.27;;